aviador You're here:

KNMM Decoded Metar

MERIDIAN in MS, USA
Report Time2018-01-18 09:56:00
UTC Time2018-01-18 10:09:37
Flight Rules vfr VFR
Wind340° at 03 kt
W.Decomp.*RWY 01: 2.6 kt HW 1.5 kt LCW
RWY 28: 1.5 kt HW 2.6 kt RCW
W.Rank340° ranks 4
Current wind is below 340° avg. (6.4)
Visibility9999 m
Phenomena:N/A
Clouds:N/A
Expected CloudBase > 800 ft AGL from Temp-Dew spread
CeilingNone
Temp-10°C (ISA -24)
Dew Point-12°C (85% RH)
AAT-14.3°C
QNH1035 hPa
Density Alt-3,445 ft
Elevation318 ft
Report Wrong Elevation
Raw Report
KNMM 180956Z AUTO 34003KT 10SM CLR M10/M12 A3057 RMK AO2 SLP368
T11001122=

Extra information for KNMM:More info

Metar Taf Metar & Taf Last 4 Metars F.Rules Stats Wind Profile Meteogram Temp Stats Airport Information Weather charts Add Link Nearby VenuesMetar ALERT Operation Metar Decoded Social comments

AIRNAV info for KNMM